Time;durP1;ratioP1;P1;durP2;ratioP2;P2;SDS_P1;SDS_P2;PMS_P1;PMS_P2;Temp;Humidity;BMP_temperature;BMP_pressure;BME280_temperature;BME280_humidity;BME280_pressure;Samples;Min_cycle;Max_cycle;Signal;HPM_P1;HPM_P2
2023/04/12 00:01:09;;;;;;;3.70;1.70;;;;;;;4.21;91.25;100222.64;104377;1273;83567;-57
2023/04/12 00:04:50;;;;;;;;;;;;;;;;;;;;;
2023/04/12 00:09:09;;;;;;;6.20;2.20;;;;;;;4.20;91.45;100218.33;101685;1294;602857;-56
2023/04/12 00:12:58;;;;;;;6.20;2.30;;;;;;;4.12;91.43;100215.48;104244;1271;69323;-55
2023/04/12 00:16:48;;;;;;;4.10;1.80;;;;;;;4.11;91.03;100215.17;104214;1274;69216;-56
2023/04/12 00:20:37;;;;;;;4.10;2.00;;;;;;;4.10;90.99;100212.41;104332;1274;72944;-60
2023/04/12 00:24:25;;;;;;;6.40;1.80;;;;;;;4.10;91.11;100213.45;100469;1270;83599;-60
2023/04/12 00:28:39;;;;;;;3.00;1.80;;;;;;;4.10;91.07;100208.45;104443;1271;69217;-56
2023/04/12 00:32:04;;;;;;;3.20;1.60;;;;;;;4.08;91.18;100209.16;104351;1271;69291;-57
2023/04/12 00:35:25;;;;;;;;;;;;;;;;;;;;;
2023/04/12 00:39:16;;;;;;;3.10;1.70;;;;;;;4.03;91.64;100203.67;104510;1269;82518;-59
2023/04/12 00:42:58;;;;;;;4.70;1.90;;;;;;;4.04;91.44;100206.27;104386;1268;74367;-61
2023/04/12 00:46:48;;;;;;;6.10;2.30;;;;;;;4.07;91.13;100205.02;104356;1271;69153;-59
2023/04/12 00:50:40;;;;;;;5.20;2.10;;;;;;;4.06;91.16;100201.05;104381;1267;69125;-57
2023/04/12 00:54:21;;;;;;;5.30;2.00;;;;;;;4.04;91.29;100192.96;104485;1269;73254;-55
2023/04/12 00:58:08;;;;;;;6.00;2.90;;;;;;;3.98;91.30;100191.30;104523;1271;83400;-59
2023/04/12 01:01:48;;;;;;;3.70;2.00;;;;;;;3.94;91.10;100191.35;104522;1270;72649;-57
2023/04/12 01:05:38;;;;;;;5.00;2.30;;;;;;;3.92;91.03;100187.05;104449;1268;69129;-57
2023/04/12 01:09:48;;;;;;;4.50;2.20;;;;;;;3.95;91.09;100190.83;104482;1271;69220;-56
2023/04/12 01:13:36;;;;;;;4.40;1.90;;;;;;;3.97;91.09;100189.93;103635;1278;72355;-61
2023/04/12 01:25:21;;;;;;;;;;;;;;;;;;;;;
2023/04/12 01:33:22;;;;;;;6.50;1.60;;;;;;;3.97;91.22;100189.43;101724;1301;74180;-56
2023/04/12 01:36:37;;;;;;;;;;;;;;;;;;;;;
2023/04/12 01:48:23;;;;;;;9.00;2.70;;;;;;;3.76;90.87;100173.79;101646;1298;599929;-61
2023/04/12 01:52:16;;;;;;;5.70;2.10;;;;;;;3.70;90.70;100176.80;104275;1276;69270;-60
2023/04/12 01:59:57;;;;;;;5.50;2.00;;;;;;;3.65;91.16;100169.61;103850;1278;72157;-56
2023/04/12 02:03:36;;;;;;;2.70;1.90;;;;;;;3.59;91.26;100167.09;100183;1274;82782;-59
2023/04/12 02:07:24;;;;;;;5.60;2.40;;;;;;;3.50;91.21;100165.29;104093;1275;69518;-62
2023/04/12 02:10:56;;;;;;;;;;;;;;;;;;;;;
2023/04/12 02:14:50;;;;;;;4.00;1.90;;;;;;;3.44;90.85;100154.66;103454;1282;72541;-56
2023/04/12 02:18:35;;;;;;;7.10;2.00;;;;;;;3.40;91.16;100159.36;103889;1273;83284;-60
2023/04/12 02:22:04;;;;;;;;;;;;;;;;;;;;;
2023/04/12 02:25:55;;;;;;;4.40;1.80;;;;;;;3.38;91.33;100154.39;103910;1274;69338;-61
2023/04/12 02:29:41;;;;;;;3.20;1.70;;;;;;;3.36;91.27;100150.44;103676;1278;69435;-57
2023/04/12 02:33:33;;;;;;;3.70;1.70;;;;;;;3.31;91.44;100144.09;103749;1278;73576;-58
2023/04/12 02:37:09;;;;;;;4.60;1.90;;;;;;;3.24;91.36;100144.17;103917;1273;82619;-59
2023/04/12 02:44:34;;;;;;;;;;;;;;;;;;;;;
2023/04/12 02:48:30;;;;;;;5.50;2.00;;;;;;;3.11;91.14;100132.41;104124;1273;69888;-58
2023/04/12 02:52:19;;;;;;;7.60;2.00;;;;;;;3.11;91.34;100123.79;104338;1263;73694;-59
2023/04/12 02:56:15;;;;;;;;;;;;;;;;;;;;;
2023/04/12 03:00:07;;;;;;;3.90;2.30;;;;;;;3.09;91.35;100114.13;104157;1280;73726;-59
2023/04/12 03:04:08;;;;;;;;;;;;;;;;;;;;;
2023/04/12 03:08:02;;;;;;;3.20;2.00;;;;;;;2.96;91.51;100113.08;104151;1280;69368;-59
2023/04/12 03:11:51;;;;;;;6.50;2.30;;;;;;;2.93;91.85;100112.41;104064;1271;73063;-56
2023/04/12 03:19:21;;;;;;;5.10;2.10;;;;;;;2.92;91.25;100116.92;104077;1276;72797;-63
2023/04/12 03:23:13;;;;;;;5.60;2.20;;;;;;;2.91;91.42;100114.84;103765;1280;69395;-57
2023/04/12 03:27:02;;;;;;;4.60;2.20;;;;;;;2.93;91.66;100120.70;103644;1277;69347;-56
2023/04/12 03:38:16;;;;;;;;;;;;;;;;;;;;;
2023/04/12 03:42:09;;;;;;;6.30;2.60;;;;;;;2.85;91.92;100131.48;104087;1273;69257;-62
2023/04/12 03:46:14;;;;;;;6.20;2.40;;;;;;;2.84;91.92;100132.85;104034;1280;69238;-57
2023/04/12 03:50:02;;;;;;;5.10;2.50;;;;;;;2.88;91.79;100137.99;104247;1272;73336;-58
2023/04/12 03:54:01;;;;;;;6.30;2.20;;;;;;;2.83;91.44;100134.25;104227;1270;83690;-57
2023/04/12 04:01:34;;;;;;;4.30;1.90;;;;;;;2.79;91.94;100127.71;104623;1266;69168;-56
2023/04/12 04:05:08;;;;;;;5.10;2.10;;;;;;;2.80;92.14;100122.37;104765;1267;69193;-59
2023/04/12 04:08:57;;;;;;;8.90;3.70;;;;;;;2.71;91.58;100120.05;104679;1267;73255;-59
2023/04/12 04:12:40;;;;;;;4.70;3.20;;;;;;;2.53;91.23;100120.54;104553;1264;83335;-59
2023/04/12 04:20:21;;;;;;;12.90;5.60;;;;;;;2.38;91.37;100111.19;103874;1278;69195;-61
2023/04/12 04:28:01;;;;;;;34.20;14.30;;;;;;;2.37;91.35;100114.65;103666;1278;72770;-62
2023/04/12 04:31:48;;;;;;;;;;;;;;;;;;;;;
2023/04/12 04:35:45;;;;;;;10.70;4.90;;;;;;;2.23;91.42;100114.23;103896;1273;74718;-62
2023/04/12 04:39:36;;;;;;;7.20;4.00;;;;;;;2.17;91.33;100116.18;103504;1282;69297;-59
2023/04/12 04:43:08;;;;;;;;;;;;;;;2.05;91.42;100119.71;103552;1283;69185;-60
2023/04/12 04:50:52;;;;;;;7.80;3.70;;;;;;;1.99;91.93;100116.83;101726;1295;603648;-60
2023/04/12 04:54:04;;;;;;;6.30;2.90;;;;;;;1.96;91.84;100122.88;104368;1274;69168;-55
2023/04/12 04:57:28;;;;;;;6.50;2.50;;;;;;;1.98;92.09;100120.63;104346;1270;69061;-58
2023/04/12 05:00:54;;;;;;;;;;;;;;;;;;;;;
2023/04/12 05:04:12;;;;;;;3.60;2.60;;;;;;;2.17;93.46;100115.66;100406;1268;5419178;-52
2023/04/12 05:07:16;;;;;;;4.80;2.10;;;;;;;2.27;93.61;100116.29;104567;1269;72783;-49
2023/04/12 05:10:01;;;;;;;3.80;2.40;;;;;;;2.36;93.82;100108.27;104495;1267;69910;-50
2023/04/12 05:13:20;;;;;;;4.70;2.40;;;;;;;2.41;94.19;100108.25;104617;1267;69168;-56
2023/04/12 05:16:36;;;;;;;7.40;3.20;;;;;;;2.46;94.10;100108.02;104752;1268;72022;-50
2023/04/12 05:19:38;;;;;;;;;;;;;;;;;;;;;
2023/04/12 05:22:57;;;;;;;;;;;;;;;;;;;;;
2023/04/12 05:25:54;;;;;;;4.20;3.30;;;;;;;2.51;93.79;100095.21;104487;1267;70012;-53
2023/04/12 05:29:20;;;;;;;;;;;;;;;;;;;;;
2023/04/12 05:32:21;;;;;;;6.70;3.00;;;;;;;2.67;94.28;100097.48;104322;1267;71288;-52
2023/04/12 05:35:56;;;;;;;6.10;3.10;;;;;;;2.76;94.44;100094.30;104638;1271;83118;-54
2023/04/12 05:38:45;;;;;;;4.40;2.70;;;;;;;2.83;94.17;100092.67;104437;1271;72689;-55
2023/04/12 05:41:42;;;;;;;3.90;2.40;;;;;;;2.87;93.85;100090.73;104556;1272;70038;-52
2023/04/12 05:44:30;;;;;;;9.80;3.50;;;;;;;2.90;94.23;100094.84;104505;1271;69099;-54
2023/04/12 05:47:40;;;;;;;11.90;6.40;;;;;;;2.91;93.83;100096.90;104624;1267;72317;-55
2023/04/12 05:50:50;;;;;;;;;;;;;;;;;;;;;
2023/04/12 05:54:06;;;;;;;15.80;6.50;;;;;;;2.99;94.13;100091.98;104482;1268;72179;-55
2023/04/12 05:57:14;;;;;;;15.70;7.20;;;;;;;3.06;94.30;100089.14;104523;1269;69219;-55
2023/04/12 06:01:03;;;;;;;;;;;;;;;;;;;;;
2023/04/12 06:04:34;;;;;;;15.30;4.60;;;;;;;3.27;94.25;100085.60;104464;1268;73279;-50
2023/04/12 06:08:17;;;;;;;;;;;;;;;;;;;;;
2023/04/12 06:11:40;;;;;;;4.50;2.70;;;;;;;3.55;94.60;100077.64;104516;1267;73946;-56
2023/04/12 06:15:09;;;;;;;7.30;3.00;;;;;;;3.69;94.69;100073.98;104493;1273;69243;-58
2023/04/12 06:18:15;;;;;;;;;;;;;;;;;;;;;
2023/04/12 06:21:03;;;;;;;5.50;3.10;;;;;;;3.94;95.04;100071.05;104504;1273;71365;-53
2023/04/12 06:24:12;;;;;;;6.70;3.40;;;;;;;4.06;95.41;100067.23;104490;1267;83270;-56
2023/04/12 06:27:21;;;;;;;5.50;3.40;;;;;;;4.17;95.39;100068.09;104471;1267;73772;-50
2023/04/12 06:30:31;;;;;;;5.80;3.30;;;;;;;4.24;95.06;100069.70;104464;1269;69836;-53
2023/04/12 06:33:28;;;;;;;;;;;;;;;;;;;;;
2023/04/12 06:36:45;;;;;;;9.70;3.90;;;;;;;4.50;94.92;100071.67;104461;1273;72289;-55
2023/04/12 06:39:44;;;;;;;;;;;;;;;;;;;;;
2023/04/12 06:42:52;;;;;;;4.40;2.70;;;;;;;4.81;95.23;100069.23;104665;1268;72841;-52
2023/04/12 06:46:08;;;;;;;;;;;;;;;;;;;;;
2023/04/12 06:49:23;;;;;;;6.70;3.20;;;;;;;5.07;95.14;100060.40;104471;1271;69171;-51
2023/04/12 06:52:16;;;;;;;;;;;;;;;;;;;;;
2023/04/12 06:55:18;;;;;;;6.90;3.90;;;;;;;5.28;95.12;100058.76;104386;1269;83618;-56
2023/04/12 06:58:16;;;;;;;6.60;3.50;;;;;;;5.42;95.16;100053.97;104628;1268;73847;-52
2023/04/12 07:01:19;;;;;;;4.80;3.20;;;;;;;5.56;94.70;100053.30;107449;1264;67988;-58
2023/04/12 07:04:21;;;;;;;4.70;2.70;;;;;;;5.67;93.91;100054.98;104693;1264;69131;-58
2023/04/12 07:07:16;;;;;;;;;;;;;;;;;;;;;
2023/04/12 07:10:31;;;;;;;;;;;;;;;;;;;;;
2023/04/12 07:13:27;;;;;;;5.20;3.20;;;;;;;5.91;93.77;100059.45;104679;1268;73803;-58
2023/04/12 07:16:42;;;;;;;4.30;2.50;;;;;;;6.00;93.81;100056.51;104578;1264;69070;-61
2023/04/12 07:19:52;;;;;;;5.50;3.00;;;;;;;6.07;93.55;100056.85;104672;1264;69203;-58
2023/04/12 07:22:39;;;;;;;6.00;2.60;;;;;;;6.17;93.46;100051.95;104870;1264;73876;-58
2023/04/12 07:25:54;;;;;;;3.50;2.20;;;;;;;6.36;93.54;100050.75;104717;1264;82616;-57
2023/04/12 07:29:07;;;;;;;6.80;2.90;;;;;;;6.56;93.52;100050.95;104609;1266;72709;-58
2023/04/12 07:32:06;;;;;;;5.80;2.90;;;;;;;6.84;94.00;100049.16;104558;1270;69194;-58
2023/04/12 07:35:14;;;;;;;6.20;3.20;;;;;;;7.12;94.42;100041.27;104826;1265;69231;-58
2023/04/12 07:38:11;;;;;;;5.40;2.90;;;;;;;7.32;93.97;100035.45;104856;1261;73249;-58
2023/04/12 07:41:35;;;;;;;;;;;;;;;;;;;;;
2023/04/12 07:45:03;;;;;;;;;;;;;;;;;;;;;
2023/04/12 07:48:30;;;;;;;7.40;2.80;;;;;;;7.85;92.70;100019.41;104901;1262;69564;-58
2023/04/12 07:52:00;;;;;;;5.10;3.20;;;;;;;7.92;91.47;100020.77;104862;1261;69270;-59
2023/04/12 07:55:30;;;;;;;5.10;2.20;;;;;;;8.00;91.13;100014.39;104881;1260;73456;-59
2023/04/12 07:58:40;;;;;;;5.60;1.90;;;;;;;8.25;90.68;100009.73;104875;1261;83702;-59
2023/04/12 08:01:53;;;;;;;3.90;2.10;;;;;;;8.58;90.98;100010.55;104758;1265;72916;-57
2023/04/12 08:05:13;;;;;;;4.20;2.00;;;;;;;8.92;90.50;100008.63;104704;1261;69178;-58
2023/04/12 08:08:27;;;;;;;5.70;2.40;;;;;;;9.22;90.19;100002.48;104778;1260;69260;-58
2023/04/12 08:11:34;;;;;;;5.50;2.30;;;;;;;9.41;89.39;100001.23;104821;1260;73411;-56
2023/04/12 08:14:49;;;;;;;3.90;2.30;;;;;;;9.54;88.74;100002.80;104885;1265;83346;-60
2023/04/12 08:17:58;;;;;;;14.80;3.20;;;;;;;9.51;87.45;100005.38;104794;1261;73897;-58
2023/04/12 08:20:51;;;;;;;4.90;2.00;;;;;;;9.47;86.54;100003.45;104771;1265;69198;-58
2023/04/12 08:24:03;;;;;;;5.10;2.10;;;;;;;9.39;85.95;100000.27;104809;1261;69305;-58
2023/04/12 08:27:17;;;;;;;14.20;4.50;;;;;;;9.35;85.84;100000.91;104920;1261;71591;-58
2023/04/12 08:30:13;;;;;;;4.60;2.20;;;;;;;9.36;85.32;100001.59;104876;1265;83486;-60
2023/04/12 08:33:46;;;;;;;4.00;2.20;;;;;;;9.34;85.03;99998.02;104821;1261;73920;-57
2023/04/12 08:36:59;;;;;;;12.20;5.50;;;;;;;9.34;85.02;99999.77;104889;1265;69201;-60
2023/04/12 08:40:28;;;;;;;;;;;;;;;;;;;;;
2023/04/12 08:43:45;;;;;;;3.30;1.60;;;;;;;9.36;84.44;99992.51;105188;1261;73311;-60
2023/04/12 08:47:05;;;;;;;5.90;1.50;;;;;;;9.34;83.75;99993.30;104830;1267;83565;-56
2023/04/12 08:50:16;;;;;;;3.60;1.10;;;;;;;9.39;83.71;99989.29;104912;1261;73713;-62
2023/04/12 08:53:39;;;;;;;4.80;1.60;;;;;;;9.44;83.14;99987.88;104855;1262;69121;-62
2023/04/12 08:56:52;;;;;;;;;;;;;;;;;;;;;
2023/04/12 09:00:04;;;;;;;3.90;1.30;;;;;;;9.64;83.22;99978.01;105011;1261;73260;-62
2023/04/12 09:03:09;;;;;;;3.90;1.60;;;;;;;9.78;83.03;99970.80;104879;1265;83208;-58
2023/04/12 09:06:13;;;;;;;5.60;2.10;;;;;;;9.94;83.06;99967.35;104872;1262;73744;-57
2023/04/12 09:09:12;;;;;;;2.90;1.30;;;;;;;10.04;82.71;99960.83;104900;1265;69160;-60
2023/04/12 09:12:22;;;;;;;6.50;1.80;;;;;;;10.10;82.22;99962.36;104877;1261;69557;-57
2023/04/12 09:15:32;;;;;;;8.10;2.60;;;;;;;10.13;81.67;99954.36;104898;1263;72070;-60
2023/04/12 09:18:32;;;;;;;5.60;2.00;;;;;;;10.29;81.77;99947.73;104684;1268;83275;-60
2023/04/12 09:21:36;;;;;;;4.80;1.50;;;;;;;10.38;81.33;99942.64;104282;1272;73767;-57
2023/04/12 09:24:27;;;;;;;4.10;1.60;;;;;;;10.42;80.90;99938.27;104220;1272;69596;-60
2023/04/12 09:27:27;;;;;;;4.20;1.30;;;;;;;10.42;80.41;99933.40;104209;1271;69407;-58
2023/04/12 09:30:33;;;;;;;3.40;1.50;;;;;;;10.46;80.49;99930.25;104217;1271;73247;-58
2023/04/12 09:33:53;;;;;;;4.50;1.50;;;;;;;10.55;80.25;99925.67;104118;1272;82933;-61
2023/04/12 09:37:01;;;;;;;3.60;1.40;;;;;;;10.58;79.95;99926.40;104106;1272;73754;-60
2023/04/12 09:39:37;;;;;;;;;;;;;;;10.69;79.74;99921.89;104233;1270;69293;-58
2023/04/12 09:42:37;;;;;;;4.30;2.10;;;;;;;10.68;78.98;99921.93;104266;1272;69211;-57
2023/04/12 09:45:36;;;;;;;2.40;1.80;;;;;;;10.63;78.54;99917.11;104311;1271;73411;-57
2023/04/12 09:48:39;;;;;;;3.80;1.60;;;;;;;10.83;78.59;99908.49;104281;1272;83002;-60
2023/04/12 09:51:29;;;;;;;5.50;1.80;;;;;;;11.00;78.69;99906.99;104191;1272;72239;-60
2023/04/12 09:54:14;;;;;;;3.30;1.20;;;;;;;11.18;77.61;99900.59;104279;1269;69193;-60
2023/04/12 09:56:56;;;;;;;6.30;1.80;;;;;;;11.36;77.69;99898.87;104400;1273;69269;-59
2023/04/12 09:59:41;;;;;;;5.30;2.20;;;;;;;11.63;77.55;99896.50;105094;1261;73374;-58
2023/04/12 10:02:26;;;;;;;5.20;1.60;;;;;;;11.74;77.11;99889.08;104816;1265;83508;-59
2023/04/12 10:05:11;;;;;;;42.40;18.30;;;;;;;11.84;76.65;99890.20;104980;1263;73720;-55
2023/04/12 10:07:49;;;;;;;14.80;6.70;;;;;;;12.00;76.43;99883.64;104918;1261;69216;-59
2023/04/12 10:10:26;;;;;;;30.90;14.20;;;;;;;12.08;76.13;99880.77;105041;1261;69225;-58
2023/04/12 10:13:03;;;;;;;5.20;1.90;;;;;;;12.44;76.58;99875.41;104965;1261;74112;-57
2023/04/12 10:15:46;;;;;;;7.60;3.60;;;;;;;12.48;74.81;99883.39;104884;1265;82540;-57
2023/04/12 10:18:26;;;;;;;;;;;;;;;12.39;74.44;99881.27;104921;1264;72127;-59
2023/04/12 10:21:18;;;;;;;6.20;2.10;;;;;;;12.26;73.55;99879.83;104879;1262;69031;-55
2023/04/12 10:24:00;;;;;;;7.00;2.70;;;;;;;11.97;73.22;99869.78;104774;1262;69191;-56
2023/04/12 10:26:49;;;;;;;6.10;3.00;;;;;;;11.90;73.33;99863.86;104895;1263;74078;-59
2023/04/12 10:29:37;;;;;;;4.90;2.40;;;;;;;12.03;73.03;99861.41;105121;1262;83501;-60
2023/04/12 10:32:24;;;;;;;8.00;4.90;;;;;;;12.16;72.94;99858.46;104859;1265;72828;-58
2023/04/12 10:35:08;;;;;;;12.20;5.60;;;;;;;12.56;72.95;99851.64;104900;1265;69197;-56
2023/04/12 10:38:04;;;;;;;5.20;2.70;;;;;;;12.90;72.71;99851.35;104890;1260;69186;-53
2023/04/12 10:40:37;;;;;;;7.20;3.60;;;;;;;13.32;71.74;99845.11;104901;1265;73111;-58
2023/04/12 10:43:21;;;;;;;6.50;2.50;;;;;;;13.77;72.17;99838.30;104871;1263;82588;-61
2023/04/12 10:45:55;;;;;;;4.50;1.70;;;;;;;14.29;71.92;99837.66;104913;1262;73956;-61
2023/04/12 10:48:34;;;;;;;2.70;1.30;;;;;;;14.47;71.06;99828.42;104832;1263;69215;-56
2023/04/12 10:51:26;;;;;;;4.40;1.80;;;;;;;14.40;69.87;99816.92;104927;1260;69101;-60
2023/04/12 10:54:09;;;;;;;2.80;1.30;;;;;;;14.61;69.42;99813.02;105017;1262;74038;-59
2023/04/12 10:56:44;;;;;;;5.40;1.40;;;;;;;14.62;68.59;99812.07;104864;1265;83782;-56
2023/04/12 10:59:28;;;;;;;6.20;1.70;;;;;;;14.53;67.77;99805.20;104742;1264;72765;-67
2023/04/12 11:02:15;;;;;;;3.30;1.30;;;;;;;14.61;67.48;99800.66;104871;1260;69217;-59
2023/04/12 11:05:09;;;;;;;12.30;5.70;;;;;;;15.04;67.68;99794.29;105085;1261;69248;-59
2023/04/12 11:08:11;;;;;;;4.80;2.50;;;;;;;15.65;66.96;99791.25;104812;1265;74539;-57
2023/04/12 11:10:40;;;;;;;3.30;1.60;;;;;;;16.04;66.52;99792.85;104890;1265;83311;-57
2023/04/12 11:13:15;;;;;;;3.00;1.30;;;;;;;16.25;65.93;99784.16;104812;1268;73774;-60
2023/04/12 11:15:44;;;;;;;3.50;1.30;;;;;;;16.52;65.38;99780.97;104894;1262;69089;-57
2023/04/12 11:18:13;;;;;;;3.80;1.70;;;;;;;16.72;64.58;99779.92;104931;1265;69232;-60
2023/04/12 11:20:41;;;;;;;4.80;1.90;;;;;;;16.91;64.16;99776.06;104860;1264;73170;-57
2023/04/12 11:23:11;;;;;;;3.40;1.40;;;;;;;17.09;63.38;99770.50;104767;1264;83865;-57
2023/04/12 11:25:39;;;;;;;4.80;2.40;;;;;;;17.29;62.76;99775.39;104801;1262;72800;-58
2023/04/12 11:28:08;;;;;;;3.80;1.70;;;;;;;17.54;62.08;99769.92;104860;1265;69251;-59
2023/04/12 11:30:55;;;;;;;5.90;1.30;;;;;;;17.66;61.70;99761.12;104767;1261;69218;-58
2023/04/12 11:33:40;;;;;;;2.90;1.30;;;;;;;17.65;61.46;99754.48;104768;1263;73084;-56
2023/04/12 11:36:13;;;;;;;3.50;1.30;;;;;;;17.89;61.52;99747.56;104994;1259;83521;-57
2023/04/12 11:38:44;;;;;;;2.10;1.10;;;;;;;18.00;60.58;99754.41;104978;1259;73789;-58
2023/04/12 11:41:13;;;;;;;4.00;1.20;;;;;;;18.27;60.08;99743.52;105021;1259;69099;-57
2023/04/12 11:43:43;;;;;;;2.30;1.10;;;;;;;18.38;59.66;99741.91;105116;1259;69105;-59
2023/04/12 11:46:11;;;;;;;2.50;1.10;;;;;;;18.37;58.76;99740.05;105074;1263;74488;-58
2023/04/12 11:48:44;;;;;;;10.80;4.90;;;;;;;18.17;58.36;99740.23;105006;1263;83527;-58
2023/04/12 11:51:20;;;;;;;3.70;1.30;;;;;;;18.04;57.76;99735.95;105018;1260;72343;-62
2023/04/12 11:53:52;;;;;;;4.00;1.40;;;;;;;18.03;57.43;99730.89;105223;1260;69135;-59
2023/04/12 11:56:20;;;;;;;4.30;1.90;;;;;;;17.80;57.22;99722.57;105069;1263;69261;-57
2023/04/12 11:58:49;;;;;;;4.40;1.30;;;;;;;17.69;57.30;99717.98;104974;1260;74057;-56
2023/04/12 12:01:22;;;;;;;3.20;1.80;;;;;;;17.84;56.88;99712.92;105058;1259;82822;-58
2023/04/12 12:03:50;;;;;;;4.30;1.90;;;;;;;18.01;56.31;99713.05;105035;1259;73649;-61
2023/04/12 12:06:19;;;;;;;3.40;1.40;;;;;;;17.89;55.24;99702.10;105004;1260;69199;-61
2023/04/12 12:08:50;;;;;;;3.90;1.50;;;;;;;17.95;55.35;99695.09;105062;1259;69093;-61
2023/04/12 12:11:20;;;;;;;2.50;1.30;;;;;;;18.19;55.47;99689.29;105043;1259;74203;-58
2023/04/12 12:13:50;;;;;;;2.90;1.30;;;;;;;18.42;54.74;99687.64;105252;1263;83405;-60
2023/04/12 12:16:29;;;;;;;5.20;2.20;;;;;;;18.40;53.86;99684.81;105317;1260;74721;-61
2023/04/12 12:18:57;;;;;;;3.50;1.40;;;;;;;18.60;53.66;99676.91;105063;1262;69199;-59
2023/04/12 12:21:26;;;;;;;4.10;1.50;;;;;;;18.84;53.50;99673.60;105042;1259;69308;-59
2023/04/12 12:23:55;;;;;;;2.80;1.00;;;;;;;19.13;53.88;99668.84;105180;1261;74124;-58
2023/04/12 12:26:25;;;;;;;;;;;;;;;19.62;54.21;99665.98;105056;1263;82377;-60
2023/04/12 12:28:55;;;;;;;4.50;1.40;;;;;;;19.84;53.07;99661.95;105212;1260;74110;-60
2023/04/12 12:31:26;;;;;;;3.80;1.50;;;;;;;19.90;52.71;99661.58;105255;1259;69220;-59
2023/04/12 12:33:57;;;;;;;3.40;1.10;;;;;;;20.08;52.30;99653.09;105078;1259;69180;-58
2023/04/12 12:36:31;;;;;;;;;;;;;;;20.15;51.65;99650.33;105214;1264;74362;-59
2023/04/12 12:39:05;;;;;;;4.50;2.70;;;;;;;19.99;50.53;99648.06;105207;1263;83633;-60
2023/04/12 12:41:34;;;;;;;2.40;0.90;;;;;;;19.88;50.33;99653.84;105135;1260;72734;-59
2023/04/12 12:44:03;;;;;;;2.10;1.00;;;;;;;19.97;50.47;99640.88;104975;1259;69112;-58
2023/04/12 12:46:31;;;;;;;3.80;1.10;;;;;;;20.09;50.21;99636.85;105056;1262;69199;-57
2023/04/12 12:49:19;;;;;;;2.50;0.80;;;;;;;19.66;48.94;99636.91;104979;1265;73065;-61
2023/04/12 12:51:47;;;;;;;2.60;1.00;;;;;;;19.48;48.49;99639.82;104961;1264;83642;-57
2023/04/12 12:54:16;;;;;;;2.80;1.00;;;;;;;18.96;48.39;99637.05;104996;1263;73887;-57
2023/04/12 12:57:03;;;;;;;3.00;1.70;;;;;;;18.82;48.35;99635.93;104972;1259;69285;-59
2023/04/12 12:59:32;;;;;;;2.90;1.20;;;;;;;19.00;48.34;99632.95;105027;1265;69205;-59
2023/04/12 13:02:00;;;;;;;3.60;2.20;;;;;;;19.22;48.33;99625.94;105025;1259;73866;-58
2023/04/12 13:04:28;;;;;;;2.80;1.60;;;;;;;19.45;47.92;99628.25;104986;1259;83395;-58
2023/04/12 13:06:57;;;;;;;4.10;2.00;;;;;;;19.64;47.48;99623.41;104976;1263;74076;-59
2023/04/12 13:09:25;;;;;;;4.00;1.10;;;;;;;19.87;46.99;99617.30;104956;1259;69216;-63
2023/04/12 13:11:53;;;;;;;5.90;1.50;;;;;;;20.04;46.51;99614.59;104934;1259;69231;-60
2023/04/12 13:14:21;;;;;;;3.20;1.80;;;;;;;20.17;46.55;99606.48;104958;1265;74100;-58
2023/04/12 13:16:49;;;;;;;2.70;1.20;;;;;;;20.37;46.62;99597.21;105000;1264;81700;-62
2023/04/12 13:19:18;;;;;;;4.10;1.60;;;;;;;20.66;46.49;99597.09;105025;1259;72792;-59
2023/04/12 13:21:46;;;;;;;2.60;0.90;;;;;;;20.87;46.40;99591.98;104991;1259;69213;-59
2023/04/12 13:24:16;;;;;;;2.60;1.00;;;;;;;21.00;45.79;99584.92;105029;1264;69530;-59
2023/04/12 13:26:44;;;;;;;6.30;2.90;;;;;;;21.10;44.95;99577.44;105071;1263;72835;-57
2023/04/12 13:29:13;;;;;;;3.50;2.00;;;;;;;21.19;44.72;99573.37;105047;1260;83005;-62
2023/04/12 13:31:41;;;;;;;3.90;1.30;;;;;;;21.33;44.24;99570.58;104991;1265;72834;-60
2023/04/12 13:34:09;;;;;;;3.80;1.70;;;;;;;21.31;44.17;99574.39;105110;1260;69129;-61
2023/04/12 13:36:37;;;;;;;1.80;1.00;;;;;;;21.37;43.73;99572.23;104981;1263;69188;-59
2023/04/12 13:39:05;;;;;;;3.70;1.30;;;;;;;21.42;43.59;99564.09;105018;1263;72203;-59
2023/04/12 13:41:34;;;;;;;6.00;3.00;;;;;;;21.49;43.30;99558.80;105126;1265;83523;-60
2023/04/12 13:44:03;;;;;;;4.10;2.00;;;;;;;21.59;43.16;99553.40;105040;1259;73777;-60
2023/04/12 13:46:31;;;;;;;2.60;1.20;;;;;;;21.75;42.97;99546.55;105278;1260;69240;-62
2023/04/12 13:48:59;;;;;;;4.00;1.00;;;;;;;21.69;42.47;99539.52;105011;1263;69093;-62
2023/04/12 13:51:28;;;;;;;2.50;1.00;;;;;;;21.59;42.02;99536.80;105064;1263;73034;-60
2023/04/12 13:53:56;;;;;;;3.00;1.20;;;;;;;21.68;42.00;99535.66;105053;1259;82769;-66
2023/04/12 13:56:24;;;;;;;4.10;1.70;;;;;;;21.85;41.90;99528.16;105042;1265;72753;-60
2023/04/12 13:58:55;;;;;;;2.90;1.10;;;;;;;21.72;41.58;99528.16;105044;1258;69103;-59
2023/04/12 14:01:24;;;;;;;2.70;1.20;;;;;;;21.49;41.30;99522.78;105049;1259;69194;-59
2023/04/12 14:03:52;;;;;;;3.10;1.40;;;;;;;21.48;41.60;99528.36;105027;1259;73044;-64
2023/04/12 14:06:20;;;;;;;4.60;2.20;;;;;;;21.55;40.64;99525.56;105054;1263;83371;-59
2023/04/12 14:08:49;;;;;;;3.30;1.00;;;;;;;21.64;40.61;99520.92;105027;1263;73576;-59
2023/04/12 14:11:18;;;;;;;4.50;1.90;;;;;;;21.88;40.50;99519.65;105033;1260;69220;-61
2023/04/12 14:13:46;;;;;;;2.70;1.00;;;;;;;22.14;40.84;99512.28;105001;1265;69301;-59
2023/04/12 14:16:14;;;;;;;3.50;1.10;;;;;;;22.24;40.37;99515.36;105026;1263;74559;-64
2023/04/12 14:18:43;;;;;;;1.00;0.70;;;;;;;22.17;39.85;99514.65;105058;1264;83511;-59
2023/04/12 14:21:11;;;;;;;2.30;1.30;;;;;;;22.23;39.73;99513.55;105014;1263;73930;-62
2023/04/12 14:23:40;;;;;;;2.70;1.40;;;;;;;22.29;39.66;99504.42;104960;1264;69209;-59
2023/04/12 14:26:14;;;;;;;2.50;1.20;;;;;;;22.53;39.25;99503.64;105310;1259;69217;-60
2023/04/12 14:28:42;;;;;;;3.60;1.80;;;;;;;22.65;38.75;99499.53;105087;1259;74207;-59
2023/04/12 14:31:13;;;;;;;2.10;0.90;;;;;;;22.75;38.66;99493.92;105005;1265;83656;-59
2023/04/12 14:33:42;;;;;;;2.20;0.80;;;;;;;22.67;38.05;99493.13;105014;1262;72801;-58
2023/04/12 14:36:10;;;;;;;2.80;0.90;;;;;;;22.56;37.71;99485.64;105061;1260;69195;-59
2023/04/12 14:38:38;;;;;;;3.40;1.00;;;;;;;22.52;37.83;99485.72;105021;1259;69173;-62
2023/04/12 14:41:08;;;;;;;4.80;1.90;;;;;;;22.56;37.36;99487.48;105013;1266;73149;-60
2023/04/12 14:43:36;;;;;;;2.90;1.60;;;;;;;22.66;37.47;99488.59;105017;1265;83688;-59
2023/04/12 14:46:05;;;;;;;3.20;2.10;;;;;;;22.79;37.21;99482.64;104997;1259;72753;-60
2023/04/12 14:48:33;;;;;;;4.50;1.40;;;;;;;22.81;36.86;99484.54;105016;1259;69118;-59
2023/04/12 14:51:02;;;;;;;4.00;1.20;;;;;;;22.78;37.15;99474.17;105011;1263;69219;-59
2023/04/12 14:53:30;;;;;;;3.70;1.10;;;;;;;22.69;36.85;99471.17;105076;1264;73981;-58
2023/04/12 14:56:02;;;;;;;2.40;1.20;;;;;;;22.44;36.63;99471.00;104968;1263;83455;-59
2023/04/12 14:58:33;;;;;;;2.80;1.90;;;;;;;22.35;36.87;99468.80;105021;1260;73636;-59
2023/04/12 15:01:01;;;;;;;5.10;2.50;;;;;;;22.57;36.98;99465.81;105143;1260;69056;-61
2023/04/12 15:03:32;;;;;;;4.30;2.60;;;;;;;22.85;36.84;99468.77;105028;1263;69214;-60
2023/04/12 15:06:00;;;;;;;4.00;2.50;;;;;;;23.17;36.89;99461.57;105052;1263;73062;-58
2023/04/12 15:08:28;;;;;;;4.00;1.60;;;;;;;23.44;36.63;99459.06;105007;1264;82412;-59
2023/04/12 15:10:57;;;;;;;3.00;1.50;;;;;;;23.57;36.34;99456.64;104991;1263;73778;-63
2023/04/12 15:13:26;;;;;;;4.10;2.30;;;;;;;23.71;36.01;99456.06;104985;1259;69180;-61
2023/04/12 15:16:01;;;;;;;2.90;1.70;;;;;;;23.91;35.83;99453.98;105156;1263;69228;-59
2023/04/12 15:18:29;;;;;;;2.30;1.40;;;;;;;23.94;35.42;99448.83;105102;1260;73797;-61
2023/04/12 15:20:59;;;;;;;2.40;1.10;;;;;;;23.55;34.87;99442.98;105087;1259;82573;-64
2023/04/12 15:23:27;;;;;;;2.00;1.20;;;;;;;23.28;35.02;99434.71;105072;1259;73378;-63
2023/04/12 15:26:02;;;;;;;1.50;1.10;;;;;;;23.05;34.91;99433.80;105019;1263;69221;-60
2023/04/12 15:28:31;;;;;;;6.50;1.40;;;;;;;23.11;35.22;99426.70;105099;1264;69174;-59
2023/04/12 15:31:00;;;;;;;3.70;1.20;;;;;;;23.28;35.28;99424.41;105090;1263;73054;-59
2023/04/12 15:33:33;;;;;;;2.00;1.00;;;;;;;23.23;34.89;99421.23;105052;1263;83428;-59
2023/04/12 15:36:01;;;;;;;2.60;0.90;;;;;;;23.25;34.81;99418.33;105121;1259;73941;-59
2023/04/12 15:38:30;;;;;;;4.70;1.00;;;;;;;23.37;34.84;99417.96;105304;1259;69167;-60
2023/04/12 15:40:59;;;;;;;2.90;1.10;;;;;;;23.53;34.68;99415.57;104995;1264;69228;-60